Time;durP1;ratioP1;P1;durP2;ratioP2;P2;SDS_P1;SDS_P2;PMS_P1;PMS_P2;Temp;Humidity;BMP_temperature;BMP_pressure;BME280_temperature;BME280_humidity;BME280_pressure;Samples;Min_cycle;Max_cycle;Signal;HPM_P1;HPM_P2
2023/04/27 00:00:01;;;;;;;18.48;12.10;;;11.70;99.90;;;;;;4966019;28;20069;-77
2023/04/27 00:02:37;;;;;;;22.65;13.20;;;11.70;99.90;;;;;;4965507;28;20404;-80
2023/04/27 00:05:06;;;;;;;22.50;11.35;;;11.70;99.90;;;;;;4970167;28;20046;-79
2023/04/27 00:07:34;;;;;;;18.73;11.43;;;11.70;99.90;;;;;;4970954;28;20039;-78
2023/04/27 00:10:01;;;;;;;24.35;12.07;;;11.70;99.90;;;;;;4956276;28;20505;-80
2023/04/27 00:12:31;;;;;;;28.58;13.32;;;11.70;99.90;;;;;;4948916;28;20089;-80
2023/04/27 00:14:58;;;;;;;13.63;9.48;;;11.70;99.90;;;;;;4970957;28;20062;-79
2023/04/27 00:17:26;;;;;;;11.60;6.10;;;11.70;99.90;;;;;;4952725;28;20404;-79
2023/04/27 00:19:54;;;;;;;14.30;6.20;;;11.70;99.90;;;;;;4922300;28;20062;-79
2023/04/27 00:22:22;;;;;;;13.35;8.18;;;11.70;99.90;;;;;;4939742;28;20138;-78
2023/04/27 00:24:50;;;;;;;11.65;6.82;;;11.70;99.90;;;;;;4972696;28;20055;-79
2023/04/27 00:27:17;;;;;;;11.10;7.32;;;11.80;99.90;;;;;;4970607;28;20087;-79
2023/04/27 00:29:45;;;;;;;15.07;6.93;;;11.80;99.90;;;;;;4939149;28;20051;-79
2023/04/27 00:32:12;;;;;;;14.52;7.55;;;11.80;99.90;;;;;;4985475;28;20054;-79
2023/04/27 00:34:40;;;;;;;11.18;7.72;;;11.90;99.90;;;;;;4951426;28;20050;-79
2023/04/27 00:37:09;;;;;;;14.82;8.30;;;11.80;99.90;;;;;;4952882;28;20061;-79
2023/04/27 00:39:36;;;;;;;22.83;9.25;;;11.80;99.90;;;;;;4941196;28;20043;-79
2023/04/27 00:42:04;;;;;;;15.20;9.48;;;11.80;99.90;;;;;;4974437;28;20054;-79
2023/04/27 00:44:31;;;;;;;24.10;9.23;;;11.70;99.90;;;;;;4974120;28;20487;-79
2023/04/27 00:46:59;;;;;;;19.95;9.27;;;11.70;99.90;;;;;;4953014;28;20585;-79
2023/04/27 00:49:27;;;;;;;14.02;9.05;;;11.70;99.90;;;;;;4974532;28;20542;-80
2023/04/27 00:51:55;;;;;;;12.95;8.32;;;11.70;99.90;;;;;;4973453;28;20097;-79
2023/04/27 00:54:25;;;;;;;14.27;8.52;;;11.80;99.90;;;;;;4952699;28;20055;-79
2023/04/27 00:56:54;;;;;;;21.05;8.80;;;11.80;99.90;;;;;;4957642;28;20054;-79
2023/04/27 00:59:22;;;;;;;16.63;9.02;;;11.80;99.90;;;;;;4956580;28;20058;-79
2023/04/27 01:01:53;;;;;;;14.57;8.20;;;11.90;99.90;;;;;;4966502;28;20058;-79
2023/04/27 01:04:22;;;;;;;14.80;8.55;;;11.90;99.90;;;;;;4956550;28;20046;-80
2023/04/27 01:06:49;;;;;;;20.83;8.35;;;11.90;99.90;;;;;;4973905;28;20043;-80
2023/04/27 01:09:18;;;;;;;14.73;8.95;;;11.90;99.90;;;;;;4955674;28;20061;-78
2023/04/27 01:11:47;;;;;;;19.05;9.80;;;11.90;99.90;;;;;;4957622;28;20049;-79
2023/04/27 01:14:16;;;;;;;18.85;9.82;;;11.80;99.90;;;;;;4952569;28;20113;-79
2023/04/27 01:16:43;;;;;;;18.58;9.98;;;11.80;99.90;;;;;;4973901;28;20108;-80
2023/04/27 01:19:14;;;;;;;18.55;9.15;;;11.80;99.90;;;;;;4939123;28;20050;-78
2023/04/27 01:21:43;;;;;;;12.80;9.20;;;11.70;99.90;;;;;;4960210;28;20531;-78
2023/04/27 01:24:12;;;;;;;18.55;10.48;;;11.60;99.90;;;;;;4974938;28;20046;-78
2023/04/27 01:26:40;;;;;;;20.38;9.73;;;11.60;99.90;;;;;;4956390;28;20054;-78
2023/04/27 01:29:08;;;;;;;18.45;9.77;;;11.60;99.90;;;;;;4939955;28;20046;-78
2023/04/27 01:31:35;;;;;;;26.08;10.45;;;11.50;99.90;;;;;;4972004;28;20050;-78
2023/04/27 01:34:03;;;;;;;16.88;10.20;;;11.50;99.90;;;;;;4972419;28;20521;-78
2023/04/27 01:36:32;;;;;;;17.50;9.88;;;11.40;99.90;;;;;;4954829;28;20411;-79
2023/04/27 01:39:00;;;;;;;21.98;10.07;;;11.40;99.90;;;;;;4939470;28;20334;-80
2023/04/27 01:41:35;;;;;;;19.40;11.02;;;11.50;99.90;;;;;;4935032;29;20058;-79
2023/04/27 01:44:04;;;;;;;21.73;10.57;;;11.50;99.90;;;;;;4966450;28;20046;-80
2023/04/27 01:46:32;;;;;;;23.88;10.95;;;11.40;99.90;;;;;;4955860;28;20514;-79
2023/04/27 01:49:00;;;;;;;15.23;9.65;;;11.40;99.90;;;;;;4954850;28;20085;-79
2023/04/27 01:51:29;;;;;;;14.57;9.68;;;11.40;99.90;;;;;;4970177;28;20043;-80
2023/04/27 01:53:57;;;;;;;20.23;10.45;;;11.40;99.90;;;;;;4970696;28;20054;-80
2023/04/27 01:56:24;;;;;;;16.75;9.77;;;11.50;99.90;;;;;;4955749;28;20562;-81
2023/04/27 01:58:54;;;;;;;15.65;9.65;;;11.50;99.90;;;;;;4955138;28;20058;-81
2023/04/27 02:01:22;;;;;;;16.38;9.40;;;11.50;99.90;;;;;;4953372;28;20109;-79
2023/04/27 02:03:49;;;;;;;11.68;8.77;;;11.60;99.90;;;;;;4955107;28;20648;-79
2023/04/27 02:06:17;;;;;;;12.75;9.13;;;11.60;99.90;;;;;;4955706;28;20137;-76
2023/04/27 02:08:46;;;;;;;12.40;8.88;;;11.60;99.90;;;;;;4954764;28;20381;-76
2023/04/27 02:11:14;;;;;;;17.00;8.68;;;11.60;99.90;;;;;;4953860;28;20097;-77
2023/04/27 02:13:41;;;;;;;17.73;8.98;;;11.60;99.90;;;;;;4954402;28;20053;-77
2023/04/27 02:16:10;;;;;;;44.22;10.88;;;11.60;99.90;;;;;;4935545;29;20045;-77
2023/04/27 02:18:40;;;;;;;20.25;10.93;;;11.60;99.90;;;;;;4948459;28;20538;-77
2023/04/27 02:21:11;;;;;;;23.05;11.57;;;11.30;99.90;;;;;;4937890;28;20051;-77
2023/04/27 02:23:38;;;;;;;30.42;13.35;;;11.20;99.90;;;;;;4937696;28;20054;-76
2023/04/27 02:26:06;;;;;;;21.90;11.27;;;11.10;99.90;;;;;;4935982;28;20065;-76
2023/04/27 02:28:34;;;;;;;21.90;11.20;;;11.10;99.90;;;;;;4972115;28;20050;-76
2023/04/27 02:31:01;;;;;;;26.63;11.23;;;11.20;99.90;;;;;;4942835;28;20058;-76
2023/04/27 02:33:30;;;;;;;23.10;11.88;;;11.20;99.90;;;;;;4954523;28;20104;-77
2023/04/27 02:35:58;;;;;;;22.27;11.23;;;11.30;99.90;;;;;;4953820;28;20430;-77
2023/04/27 02:38:26;;;;;;;22.70;11.75;;;11.40;99.90;;;;;;4938535;28;20043;-77
2023/04/27 02:40:54;;;;;;;24.35;12.30;;;11.50;99.90;;;;;;4970542;28;20503;-76
2023/04/27 02:43:22;;;;;;;23.17;11.95;;;11.60;99.90;;;;;;4969179;28;20054;-76
2023/04/27 02:45:49;;;;;;;19.00;10.93;;;11.60;99.90;;;;;;4955374;28;20061;-76
2023/04/27 02:48:17;;;;;;;17.65;11.75;;;11.70;99.90;;;;;;4956777;28;20051;-77
2023/04/27 02:50:46;;;;;;;25.48;12.07;;;11.70;99.90;;;;;;4928405;29;20055;-76
2023/04/27 02:53:14;;;;;;;24.30;13.48;;;11.80;99.90;;;;;;4949638;28;20058;-76
2023/04/27 02:55:49;;;;;;;21.45;11.65;;;11.90;99.90;;;;;;4969728;28;20401;-77
2023/04/27 02:58:17;;;;;;;19.80;12.02;;;12.00;99.90;;;;;;4969718;28;20482;-77
2023/04/27 03:00:45;;;;;;;24.92;12.20;;;12.10;99.90;;;;;;4939022;28;20138;-77
2023/04/27 03:03:12;;;;;;;17.60;10.88;;;12.10;99.90;;;;;;4967586;28;20463;-77
2023/04/27 03:05:41;;;;;;;19.42;11.82;;;12.20;99.90;;;;;;4954660;28;20065;-77
2023/04/27 03:08:15;;;;;;;22.45;10.45;;;12.20;99.90;;;;;;4952642;28;20471;-77
2023/04/27 03:10:48;;;;;;;22.08;10.48;;;12.30;99.90;;;;;;4943526;28;20408;-77
2023/04/27 03:13:18;;;;;;;14.13;9.93;;;12.30;99.90;;;;;;4965792;28;20043;-77
2023/04/27 03:15:46;;;;;;;14.57;8.25;;;12.30;99.90;;;;;;4955103;28;20422;-76
2023/04/27 03:18:14;;;;;;;21.33;7.82;;;12.30;99.90;;;;;;4938049;28;20076;-78
2023/04/27 03:20:42;;;;;;;13.52;8.27;;;12.20;99.90;;;;;;4952862;28;20069;-76
2023/04/27 03:23:11;;;;;;;19.80;8.48;;;12.10;99.90;;;;;;4972074;28;20162;-76
2023/04/27 03:25:38;;;;;;;20.15;8.77;;;12.10;99.90;;;;;;4970475;28;20082;-76
2023/04/27 03:28:08;;;;;;;21.08;8.63;;;12.10;99.90;;;;;;4938544;28;20450;-76
2023/04/27 03:30:38;;;;;;;15.40;8.45;;;12.00;99.90;;;;;;4936403;28;20050;-76
2023/04/27 03:33:06;;;;;;;15.07;8.48;;;12.00;99.90;;;;;;4953219;28;20124;-76
2023/04/27 03:35:33;;;;;;;17.95;8.02;;;11.90;99.90;;;;;;4936428;28;20042;-77
2023/04/27 03:38:00;;;;;;;15.35;8.65;;;12.00;99.90;;;;;;4950669;28;20428;-77
2023/04/27 03:40:30;;;;;;;17.85;8.27;;;12.00;99.90;;;;;;4970682;28;20051;-76
2023/04/27 03:42:59;;;;;;;12.00;7.55;;;12.00;99.90;;;;;;4952669;28;20047;-77
2023/04/27 03:45:26;;;;;;;14.80;8.15;;;12.00;99.90;;;;;;4953768;28;20109;-77
2023/04/27 03:47:54;;;;;;;14.50;7.32;;;12.10;99.90;;;;;;4949841;29;20161;-77
2023/04/27 03:50:22;;;;;;;20.00;8.02;;;12.00;99.90;;;;;;4951071;28;20053;-77
2023/04/27 03:52:50;;;;;;;13.88;7.53;;;12.00;99.90;;;;;;4953314;28;20046;-77
2023/04/27 03:55:18;;;;;;;13.13;7.43;;;11.90;99.90;;;;;;4935388;28;20070;-76
2023/04/27 03:57:51;;;;;;;14.10;7.45;;;11.80;99.90;;;;;;4929074;28;20082;-80
2023/04/27 04:00:19;;;;;;;12.63;7.18;;;11.80;99.90;;;;;;4958364;28;20603;-80
2023/04/27 04:02:47;;;;;;;12.68;7.30;;;11.80;99.90;;;;;;4954933;28;20039;-80
2023/04/27 04:05:15;;;;;;;16.50;7.78;;;11.70;99.90;;;;;;4956474;28;20047;-78
2023/04/27 04:07:43;;;;;;;13.82;7.65;;;11.70;99.90;;;;;;4975534;28;20394;-77
2023/04/27 04:10:14;;;;;;;13.75;7.40;;;11.80;99.90;;;;;;4940796;28;20046;-77
2023/04/27 04:12:45;;;;;;;17.23;7.63;;;11.90;99.90;;;;;;4976033;28;20054;-82
2023/04/27 04:15:17;;;;;;;16.20;7.55;;;11.90;99.90;;;;;;4975511;28;20059;-78
2023/04/27 04:17:48;;;;;;;14.48;7.00;;;12.00;99.90;;;;;;4959692;28;20065;-79
2023/04/27 04:20:17;;;;;;;15.90;6.35;;;12.00;99.90;;;;;;4978663;28;20349;-80
2023/04/27 04:22:45;;;;;;;20.65;8.05;;;12.00;99.90;;;;;;4970171;28;20057;-80
2023/04/27 04:25:13;;;;;;;19.23;6.47;;;12.10;99.90;;;;;;4956206;28;20431;-80
2023/04/27 04:27:43;;;;;;;15.27;6.60;;;12.00;99.90;;;;;;4947279;28;20050;-81
2023/04/27 04:30:12;;;;;;;15.55;7.70;;;12.00;99.90;;;;;;4954828;28;20050;-81
2023/04/27 04:32:44;;;;;;;11.27;7.00;;;11.90;99.90;;;;;;4958388;28;20059;-81
2023/04/27 04:35:12;;;;;;;16.52;7.75;;;11.90;99.90;;;;;;4944795;29;20051;-80
2023/04/27 04:37:40;;;;;;;9.70;6.25;;;11.90;99.90;;;;;;4943490;28;20114;-79
2023/04/27 04:40:11;;;;;;;19.10;8.00;;;12.00;99.90;;;;;;4972407;28;20503;-79
2023/04/27 04:42:40;;;;;;;19.63;6.88;;;12.00;99.90;;;;;;4955538;28;21006;-80
2023/04/27 04:45:10;;;;;;;14.48;6.32;;;12.00;99.90;;;;;;4946908;28;20078;-79
2023/04/27 04:47:38;;;;;;;16.17;7.10;;;12.00;99.90;;;;;;4945489;28;20059;-79
2023/04/27 04:50:09;;;;;;;12.65;6.50;;;12.00;99.90;;;;;;4975029;28;20404;-79
2023/04/27 04:53:39;;;;;;;;;;;;;;;;;;;;;
2023/04/27 04:56:38;;;;;;;18.70;6.90;;;12.00;99.90;;;;;;4956402;28;20045;-79
2023/04/27 04:59:09;;;;;;;12.38;6.78;;;12.10;99.90;;;;;;4970655;28;20080;-77
2023/04/27 05:01:39;;;;;;;16.52;6.82;;;12.10;99.90;;;;;;4941695;28;20428;-78
2023/04/27 05:04:06;;;;;;;14.52;7.30;;;12.10;99.90;;;;;;4957716;28;20046;-79
2023/04/27 05:06:36;;;;;;;18.13;7.07;;;12.20;99.90;;;;;;4957009;28;20070;-82
2023/04/27 05:09:05;;;;;;;21.83;7.82;;;12.30;99.90;;;;;;4976101;28;20051;-80
2023/04/27 05:11:32;;;;;;;16.50;7.15;;;12.40;99.90;;;;;;4970852;28;20079;-82
2023/04/27 05:14:02;;;;;;;18.98;6.97;;;12.40;99.90;;;;;;4945431;28;20054;-85
2023/04/27 05:16:30;;;;;;;13.70;7.40;;;12.50;99.90;;;;;;4954713;28;20539;-86
2023/04/27 05:18:58;;;;;;;16.02;7.38;;;12.60;99.90;;;;;;4956868;28;20054;-84
2023/04/27 05:21:28;;;;;;;12.90;6.70;;;12.60;99.90;;;;;;4954133;28;20047;-86
2023/04/27 05:23:57;;;;;;;17.15;7.95;;;12.70;99.90;;;;;;4970159;28;20050;-86
2023/04/27 05:26:24;;;;;;;14.75;6.78;;;12.90;99.90;;;;;;4939548;28;20090;-85
2023/04/27 05:28:52;;;;;;;13.10;7.75;;;13.10;99.90;;;;;;4973850;28;20527;-84
2023/04/27 05:31:19;;;;;;;15.02;7.78;;;13.20;99.90;;;;;;4973336;28;20059;-85
2023/04/27 05:33:50;;;;;;;19.95;8.50;;;13.40;99.90;;;;;;4960421;28;20050;-83
2023/04/27 05:36:18;;;;;;;17.52;8.50;;;13.40;99.90;;;;;;4937286;29;20085;-77
2023/04/27 05:38:45;;;;;;;18.92;7.65;;;13.50;99.90;;;;;;4957247;28;20047;-85
2023/04/27 05:41:14;;;;;;;17.85;7.53;;;13.60;99.90;;;;;;4974607;28;20051;-83
2023/04/27 05:43:41;;;;;;;18.98;8.75;;;13.80;99.90;;;;;;4973199;28;20361;-76
2023/04/27 05:46:10;;;;;;;18.77;8.27;;;14.30;99.90;;;;;;4973413;28;20055;-77
2023/04/27 05:48:37;;;;;;;13.55;7.97;;;14.90;99.90;;;;;;4940804;28;20405;-77
2023/04/27 05:51:05;;;;;;;21.35;8.52;;;15.50;99.90;;;;;;4969124;28;20073;-77
2023/04/27 05:53:34;;;;;;;25.83;13.25;;;16.20;99.90;;;;;;4964783;28;20050;-77
2023/04/27 05:56:03;;;;;;;19.15;8.90;;;16.80;99.90;;;;;;4940711;28;20066;-78
2023/04/27 05:58:32;;;;;;;15.50;7.82;;;16.80;99.90;;;;;;4973679;28;20047;-77
2023/04/27 06:01:00;;;;;;;14.57;7.38;;;17.00;99.90;;;;;;4936111;28;20563;-78
2023/04/27 06:03:28;;;;;;;10.65;7.18;;;17.20;99.90;;;;;;4973757;28;20058;-76
2023/04/27 06:05:55;;;;;;;15.70;7.72;;;17.10;99.90;;;;;;4956143;28;20050;-79
2023/04/27 06:08:23;;;;;;;30.48;7.55;;;16.70;99.90;;;;;;4973052;28;20082;-78
2023/04/27 06:10:52;;;;;;;17.38;8.40;;;16.70;99.90;;;;;;4942930;28;20097;-80
2023/04/27 06:13:20;;;;;;;10.93;7.78;;;17.20;99.90;;;;;;4975252;28;20483;-82
2023/04/27 06:15:49;;;;;;;18.50;7.70;;;17.70;99.90;;;;;;4972073;28;20055;-80
2023/04/27 06:18:20;;;;;;;13.30;6.47;;;17.80;99.90;;;;;;4972547;28;20074;-82
2023/04/27 06:20:48;;;;;;;15.82;8.25;;;17.50;99.90;;;;;;4970573;28;20625;-83
2023/04/27 06:23:16;;;;;;;16.33;7.63;;;17.10;99.90;;;;;;4968268;28;20130;-83
2023/04/27 06:25:44;;;;;;;13.40;7.93;;;16.70;99.90;;;;;;4972283;28;20050;-80
2023/04/27 06:28:11;;;;;;;16.52;8.35;;;16.50;99.90;;;;;;4970737;28;20450;-82
2023/04/27 06:30:39;;;;;;;20.05;8.82;;;16.30;99.90;;;;;;4953255;28;20521;-81
2023/04/27 06:33:09;;;;;;;16.08;8.57;;;16.20;99.90;;;;;;4969307;28;20419;-81
2023/04/27 06:35:36;;;;;;;10.05;8.02;;;16.10;99.90;;;;;;4971085;28;20050;-79
2023/04/27 06:38:04;;;;;;;17.00;8.15;;;15.90;99.90;;;;;;4971326;28;20043;-80
2023/04/27 06:40:31;;;;;;;16.17;8.35;;;15.70;99.90;;;;;;4953628;28;20525;-81
2023/04/27 06:42:59;;;;;;;13.18;8.30;;;15.40;99.90;;;;;;4970038;28;20063;-80
2023/04/27 06:45:27;;;;;;;17.10;8.60;;;15.10;99.90;;;;;;4964912;28;20486;-81
2023/04/27 06:47:55;;;;;;;14.20;8.55;;;15.00;99.90;;;;;;4941117;28;20046;-82
2023/04/27 06:50:23;;;;;;;14.88;8.07;;;14.80;99.90;;;;;;4972041;28;20047;-80
2023/04/27 06:52:51;;;;;;;19.75;8.73;;;14.90;99.90;;;;;;4968948;28;20098;-85
2023/04/27 06:55:19;;;;;;;19.65;7.68;;;14.90;99.90;;;;;;4970604;28;20059;-82
2023/04/27 06:57:48;;;;;;;13.68;7.63;;;14.90;99.90;;;;;;4972310;28;20046;-83
2023/04/27 07:00:16;;;;;;;15.20;8.85;;;15.00;99.90;;;;;;4974595;28;20055;-83
2023/04/27 07:02:44;;;;;;;16.50;9.52;;;15.30;99.90;;;;;;4974152;28;20134;-83
2023/04/27 07:05:11;;;;;;;14.18;8.43;;;15.30;99.90;;;;;;4956018;28;20070;-84
2023/04/27 07:07:43;;;;;;;14.05;8.35;;;15.30;99.90;;;;;;4955956;28;20060;-82
2023/04/27 07:10:11;;;;;;;21.77;8.50;;;15.20;99.90;;;;;;4968637;28;20050;-85
2023/04/27 07:12:40;;;;;;;14.23;8.93;;;15.20;99.90;;;;;;4952777;28;20047;-85
2023/04/27 07:15:09;;;;;;;15.05;7.95;;;15.30;99.90;;;;;;4954986;28;20093;-83
2023/04/27 07:17:37;;;;;;;18.77;8.18;;;15.40;99.90;;;;;;4955461;28;20514;-85
2023/04/27 07:20:07;;;;;;;18.27;8.45;;;15.60;99.90;;;;;;4955052;28;20051;-82
2023/04/27 07:22:35;;;;;;;16.80;9.05;;;16.30;99.90;;;;;;4966048;28;20051;-79
2023/04/27 07:25:05;;;;;;;13.85;9.02;;;17.50;99.90;;;;;;4971798;28;20077;-79
2023/04/27 07:27:34;;;;;;;9.98;7.47;;;18.70;99.90;;;;;;4971841;28;20121;-79
2023/04/27 07:30:02;;;;;;;12.68;7.85;;;18.60;99.90;;;;;;4952432;28;20141;-79
2023/04/27 07:32:33;;;;;;;14.98;8.45;;;17.90;99.90;;;;;;4967379;28;20058;-77
2023/04/27 07:35:02;;;;;;;13.30;8.93;;;17.20;99.90;;;;;;4970331;28;20051;-79
2023/04/27 07:37:32;;;;;;;12.00;8.35;;;16.60;99.90;;;;;;4953736;28;20055;-77
2023/04/27 07:40:01;;;;;;;10.52;7.68;;;16.00;99.90;;;;;;4956666;28;20050;-76
2023/04/27 07:42:32;;;;;;;12.15;7.63;;;15.50;99.90;;;;;;4952414;29;20074;-82
2023/04/27 07:45:00;;;;;;;14.35;7.97;;;15.00;99.90;;;;;;4952156;28;20051;-79
2023/04/27 07:47:27;;;;;;;14.23;9.18;;;14.70;99.90;;;;;;4951862;28;20145;-81
2023/04/27 07:49:55;;;;;;;17.33;7.55;;;14.60;99.90;;;;;;4959890;28;20051;-83
2023/04/27 07:52:22;;;;;;;19.20;8.40;;;14.70;99.90;;;;;;4967485;28;20043;-80
2023/04/27 07:54:50;;;;;;;16.40;9.25;;;14.90;99.90;;;;;;4966365;28;20507;-79
2023/04/27 07:57:18;;;;;;;17.13;7.72;;;15.10;99.90;;;;;;4970341;28;20043;-82
2023/04/27 07:59:47;;;;;;;12.20;9.15;;;15.80;99.90;;;;;;4957057;28;20063;-83
2023/04/27 08:02:15;;;;;;;20.27;7.90;;;17.00;99.90;;;;;;4952384;29;20389;-80
2023/04/27 08:04:42;;;;;;;15.55;8.38;;;18.10;99.90;;;;;;4934470;28;20047;-82
2023/04/27 08:07:10;;;;;;;10.82;8.25;;;18.60;99.90;;;;;;4950847;28;20051;-81
2023/04/27 08:09:38;;;;;;;13.93;9.25;;;18.60;99.90;;;;;;4971724;28;20110;-81
2023/04/27 08:12:05;;;;;;;24.55;8.75;;;18.30;99.90;;;;;;4990561;28;20093;-80
2023/04/27 08:14:35;;;;;;;13.73;8.38;;;18.00;99.90;;;;;;4977301;28;20074;-81
2023/04/27 08:17:03;;;;;;;15.75;9.23;;;17.70;99.90;;;;;;4950241;29;20059;-75
2023/04/27 08:19:31;;;;;;;13.10;8.05;;;17.20;99.90;;;;;;4951971;29;20148;-77
2023/04/27 08:21:58;;;;;;;14.77;9.60;;;16.70;99.90;;;;;;4950414;29;20142;-76
2023/04/27 08:24:26;;;;;;;14.52;7.68;;;16.20;99.90;;;;;;4949961;29;20054;-76
2023/04/27 08:26:53;;;;;;;15.13;8.50;;;15.90;99.90;;;;;;4960932;28;20046;-76
2023/04/27 08:29:21;;;;;;;442.25;31.10;;;15.70;99.90;;;;;;4952338;28;20058;-76
2023/04/27 08:31:49;;;;;;;15.98;6.95;;;15.70;99.90;;;;;;4969849;28;20054;-75
2023/04/27 08:34:18;;;;;;;15.65;6.53;;;15.90;99.90;;;;;;4969100;28;20056;-74
2023/04/27 08:36:45;;;;;;;15.27;6.95;;;17.20;99.90;;;;;;4953344;28;20051;-75
2023/04/27 08:39:12;;;;;;;18.55;7.20;;;18.60;99.90;;;;;;4954254;28;20055;-75
2023/04/27 08:41:43;;;;;;;7.00;5.65;;;18.60;99.90;;;;;;4959150;28;20515;-75
2023/04/27 08:44:11;;;;;;;15.60;6.18;;;18.10;99.90;;;;;;4955191;28;20043;-75
2023/04/27 08:46:39;;;;;;;10.30;6.05;;;17.50;99.90;;;;;;4947620;28;20074;-77
2023/04/27 08:49:08;;;;;;;7.47;6.18;;;17.00;99.90;;;;;;4955254;29;20079;-74
2023/04/27 08:51:37;;;;;;;14.00;6.55;;;16.60;99.90;;;;;;4959673;28;20089;-75
2023/04/27 08:54:05;;;;;;;14.90;6.80;;;16.40;99.90;;;;;;4956212;28;20149;-75
2023/04/27 08:56:32;;;;;;;12.70;6.15;;;16.40;99.90;;;;;;4937886;28;20043;-76
2023/04/27 08:59:03;;;;;;;11.27;5.65;;;17.90;99.90;;;;;;4971479;28;20054;-76
2023/04/27 09:01:31;;;;;;;14.68;6.28;;;19.80;99.90;;;;;;4974585;28;20114;-75
2023/04/27 09:04:01;;;;;;;15.50;5.40;;;21.30;94.50;;;;;;4973113;28;20511;-76
2023/04/27 09:06:33;;;;;;;10.77;5.07;;;22.10;90.50;;;;;;4973781;28;20055;-76
2023/04/27 09:09:04;;;;;;;16.30;5.80;;;22.90;85.40;;;;;;4967316;28;20061;-76
2023/04/27 09:11:34;;;;;;;9.40;4.43;;;23.50;79.70;;;;;;4935756;29;20126;-76
2023/04/27 09:14:15;;;;;;;8.07;4.47;;;24.00;75.60;;;;;;4987461;28;20051;-76
2023/04/27 09:16:43;;;;;;;5.10;4.60;;;24.60;72.10;;;;;;4973202;28;20070;-76
2023/04/27 09:19:11;;;;;;;9.23;4.75;;;25.10;69.40;;;;;;4939395;28;20055;-76
2023/04/27 09:21:39;;;;;;;7.93;4.47;;;25.30;69.00;;;;;;4965817;28;20054;-76
2023/04/27 09:24:17;;;;;;;8.38;4.05;;;25.30;66.60;;;;;;4972201;28;20043;-76
2023/04/27 09:26:50;;;;;;;12.23;4.47;;;25.50;64.70;;;;;;4949295;28;20522;-76
2023/04/27 09:29:18;;;;;;;7.80;4.05;;;25.80;64.20;;;;;;4968425;28;20137;-75
2023/04/27 09:31:45;;;;;;;7.35;4.32;;;26.00;62.50;;;;;;4952720;28;20431;-74
2023/04/27 09:34:13;;;;;;;14.10;4.00;;;26.00;61.30;;;;;;4971376;28;20451;-76
2023/04/27 09:36:41;;;;;;;7.93;3.75;;;25.80;59.70;;;;;;4971468;28;20046;-75
2023/04/27 09:39:09;;;;;;;8.02;4.20;;;25.70;60.70;;;;;;4932313;29;20537;-76
2023/04/27 09:41:38;;;;;;;9.18;3.65;;;25.90;60.50;;;;;;4953484;28;20055;-75
2023/04/27 09:44:08;;;;;;;12.52;3.83;;;26.10;59.80;;;;;;4952285;29;20083;-75
2023/04/27 09:46:36;;;;;;;4.55;4.03;;;25.80;59.20;;;;;;4953835;28;20094;-74
2023/04/27 09:49:05;;;;;;;6.15;3.38;;;25.00;59.30;;;;;;4956983;28;20035;-75
2023/04/27 09:51:34;;;;;;;5.32;4.32;;;24.00;61.70;;;;;;4964445;28;20046;-75
2023/04/27 09:54:04;;;;;;;12.00;3.70;;;22.40;64.60;;;;;;4951145;28;20062;-74
2023/04/27 09:56:46;;;;;;;6.97;3.85;;;21.00;68.60;;;;;;4964430;28;20127;-76
2023/04/27 09:59:40;;;;;;;16.07;4.53;;;19.70;72.40;;;;;;4967498;28;20047;-74
2023/04/27 10:02:11;;;;;;;7.72;4.28;;;18.60;76.50;;;;;;4953530;29;20283;-75
2023/04/27 10:05:08;;;;;;;9.73;3.45;;;17.90;79.10;;;;;;4952989;28;20169;-75
2023/04/27 10:07:37;;;;;;;6.72;2.97;;;17.50;81.50;;;;;;4969328;28;20054;-75
2023/04/27 10:10:06;;;;;;;5.82;3.30;;;17.00;84.30;;;;;;4958581;28;20046;-75
2023/04/27 10:12:36;;;;;;;14.98;3.13;;;16.70;86.90;;;;;;4992182;28;20568;-76
2023/04/27 10:15:15;;;;;;;5.22;1.98;;;16.70;89.00;;;;;;4943046;28;20075;-75
2023/04/27 10:17:51;;;;;;;12.23;2.38;;;16.80;90.10;;;;;;4952500;28;20074;-76
2023/04/27 10:20:29;;;;;;;6.45;2.03;;;17.20;90.50;;;;;;4962232;28;20050;-75
2023/04/27 10:22:58;;;;;;;8.38;1.90;;;19.00;87.10;;;;;;4953816;28;20581;-76
2023/04/27 10:25:30;;;;;;;16.35;1.55;;;20.60;79.30;;;;;;4962174;28;20442;-76
2023/04/27 10:28:01;;;;;;;12.15;3.22;;;22.10;73.80;;;;;;4952438;29;20590;-76
2023/04/27 10:30:34;;;;;;;10.13;1.45;;;22.90;68.80;;;;;;4952120;28;20055;-75
2023/04/27 10:33:07;;;;;;;16.90;1.60;;;23.40;65.20;;;;;;4952099;28;20435;-77
2023/04/27 10:35:37;;;;;;;4.00;1.23;;;23.60;63.90;;;;;;4934651;29;20054;-82
2023/04/27 10:38:16;;;;;;;9.98;1.13;;;24.20;61.50;;;;;;4952236;29;20111;-81
2023/04/27 10:40:45;;;;;;;11.57;1.20;;;23.00;60.70;;;;;;4935403;29;20135;-81
2023/04/27 10:43:17;;;;;;;8.05;1.48;;;22.00;64.70;;;;;;4934967;29;20130;-81
2023/04/27 10:45:45;;;;;;;5.93;1.05;;;21.20;65.80;;;;;;4963898;28;20145;-82
2023/04/27 10:48:14;;;;;;;2.67;1.35;;;20.10;68.20;;;;;;4961239;28;20515;-77
2023/04/27 10:50:43;;;;;;;5.43;1.20;;;18.70;72.40;;;;;;4969334;28;20095;-81
2023/04/27 10:53:11;;;;;;;2.63;1.60;;;17.90;76.50;;;;;;4965359;28;20059;-81
2023/04/27 10:55:38;;;;;;;6.88;1.55;;;17.30;79.10;;;;;;4959656;28;20051;-80
2023/04/27 10:58:06;;;;;;;9.45;1.33;;;16.80;82.30;;;;;;4952706;29;20055;-81
2023/04/27 11:00:40;;;;;;;11.15;2.25;;;16.50;83.40;;;;;;4954141;28;20048;-79
2023/04/27 11:03:15;;;;;;;3.00;1.58;;;16.90;85.20;;;;;;4952231;28;20113;-80
2023/04/27 11:05:44;;;;;;;1.60;1.48;;;17.40;83.60;;;;;;4963617;28;20064;-81
2023/04/27 11:08:14;;;;;;;3.33;1.52;;;17.50;82.30;;;;;;4954265;28;20504;-81
2023/04/27 11:10:46;;;;;;;6.93;1.80;;;17.30;82.80;;;;;;4968885;28;20460;-82
2023/04/27 11:13:16;;;;;;;6.50;1.38;;;17.00;83.70;;;;;;4955102;28;20407;-79
2023/04/27 11:15:52;;;;;;;3.35;1.20;;;16.60;84.70;;;;;;4956973;28;20055;-81
2023/04/27 11:18:22;;;;;;;5.28;1.42;;;16.20;86.90;;;;;;4969505;28;20411;-80
2023/04/27 11:20:53;;;;;;;21.80;1.42;;;16.00;88.70;;;;;;4972429;28;20051;-82
2023/04/27 11:23:26;;;;;;;6.40;1.13;;;16.10;88.70;;;;;;4970566;28;20078;-81
2023/04/27 11:25:55;;;;;;;6.72;0.88;;;17.00;87.30;;;;;;4952546;28;20078;-80
2023/04/27 11:28:24;;;;;;;9.07;1.35;;;18.50;81.70;;;;;;4967584;28;20046;-83
2023/04/27 11:31:00;;;;;;;8.30;1.15;;;19.90;77.00;;;;;;4969275;28;20458;-85
2023/04/27 11:33:28;;;;;;;11.50;1.30;;;21.20;71.50;;;;;;4974113;28;20074;-83
2023/04/27 11:35:56;;;;;;;8.82;1.05;;;21.20;68.70;;;;;;4966652;28;20138;-82
2023/04/27 11:38:27;;;;;;;4.75;0.77;;;20.50;70.00;;;;;;4964439;28;20046;-82
2023/04/27 11:41:06;;;;;;;3.22;0.85;;;19.70;73.40;;;;;;4962730;28;20511;-83
2023/04/27 11:43:35;;;;;;;8.63;0.80;;;19.90;73.00;;;;;;4971729;28;20070;-84
2023/04/27 11:46:09;;;;;;;13.75;1.70;;;20.30;70.40;;;;;;4965326;28;20054;-84
2023/04/27 11:48:38;;;;;;;15.63;1.23;;;19.80;70.80;;;;;;4964615;28;20051;-82
2023/04/27 11:51:07;;;;;;;10.00;1.25;;;19.10;73.40;;;;;;4958664;28;20054;-82
2023/04/27 11:53:38;;;;;;;9.55;2.17;;;18.60;74.80;;;;;;4969227;28;20039;-82
2023/04/27 11:56:10;;;;;;;17.10;1.47;;;17.90;76.60;;;;;;4944969;28;20053;-82
2023/04/27 11:58:39;;;;;;;9.98;5.95;;;17.00;79.20;;;;;;4979667;28;20405;-81
2023/04/27 12:01:12;;;;;;;4.22;1.00;;;16.30;81.50;;;;;;4962929;28;20734;-82
2023/04/27 12:03:40;;;;;;;12.23;1.88;;;15.50;84.30;;;;;;4977652;28;20046;-80
2023/04/27 12:06:07;;;;;;;10.13;1.70;;;14.80;87.90;;;;;;4962496;28;20057;-82
2023/04/27 12:08:35;;;;;;;8.02;1.08;;;14.20;90.80;;;;;;4970505;28;20061;-87
2023/04/27 12:11:02;;;;;;;4.97;1.45;;;13.70;92.70;;;;;;4950814;28;20130;-84
2023/04/27 12:13:31;;;;;;;2.50;1.20;;;13.60;94.90;;;;;;4948393;28;20050;-90
2023/04/27 12:15:59;;;;;;;4.25;1.27;;;13.40;96.00;;;;;;4957830;28;20137;-88
2023/04/27 12:18:28;;;;;;;11.40;1.67;;;13.10;98.20;;;;;;4974339;28;20137;-90
2023/04/27 12:20:56;;;;;;;7.43;1.73;;;12.80;99.90;;;;;;4972570;28;20539;-86
2023/04/27 12:23:24;;;;;;;4.18;1.40;;;12.50;99.90;;;;;;4957347;28;20097;-92
2023/04/27 12:25:52;;;;;;;13.20;1.95;;;12.30;99.90;;;;;;4957525;28;20063;-88
2023/04/27 12:28:20;;;;;;;10.70;1.23;;;11.90;99.90;;;;;;4978623;28;20081;-87
2023/04/27 12:30:48;;;;;;;4.38;1.50;;;11.70;99.90;;;;;;4938279;28;20121;-89
2023/04/27 12:33:16;;;;;;;2.50;1.40;;;11.70;99.90;;;;;;4955599;28;20118;-83
2023/04/27 12:35:46;;;;;;;7.30;1.52;;;11.70;99.90;;;;;;4971148;28;20535;-83
2023/04/27 12:38:14;;;;;;;3.83;1.70;;;11.80;99.90;;;;;;4973999;28;20542;-83
2023/04/27 12:40:42;;;;;;;6.43;1.77;;;11.80;99.90;;;;;;4969003;28;20042;-83
2023/04/27 12:43:11;;;;;;;5.63;1.50;;;11.90;99.90;;;;;;4971079;28;20968;-83
2023/04/27 12:45:39;;;;;;;3.75;1.30;;;11.80;99.90;;;;;;4971805;28;20059;-85
2023/04/27 12:48:07;;;;;;;12.35;1.35;;;11.70;99.90;;;;;;4973064;28;20051;-84